Time;durP1;ratioP1;P1;durP2;ratioP2;P2;SDS_P1;SDS_P2;PMS_P1;PMS_P2;Temp;Humidity;BMP_temperature;BMP_pressure;BME280_temperature;BME280_humidity;BME280_pressure;Samples;Min_cycle;Max_cycle;Signal;HPM_P1;HPM_P2
2021/12/06 00:00:54;;;;;;;20.02;13.43;;;;;;;4.61;84.52;101129.50;5094186;28;20021;-63
2021/12/06 00:03:22;;;;;;;;;;;;;;;4.63;85.25;101120.00;4992926;28;20046;-63
2021/12/06 00:05:47;;;;;;;18.77;12.43;;;;;;;4.51;84.64;101124.75;4991936;28;19914;-62
2021/12/06 00:08:12;;;;;;;21.27;12.75;;;;;;;4.47;84.67;101128.06;4992170;28;20153;-63
2021/12/06 00:10:38;;;;;;;26.33;13.23;;;;;;;4.46;85.04;101137.66;4991975;28;20018;-63
2021/12/06 00:13:04;;;;;;;17.80;12.80;;;;;;;4.45;84.67;101134.94;4992185;28;20081;-63
2021/12/06 00:15:32;;;;;;;22.13;13.68;;;;;;;4.43;85.29;101134.91;4975921;28;20034;-63
2021/12/06 00:17:59;;;;;;;24.33;15.68;;;;;;;4.39;84.96;101135.59;4992243;28;20105;-63
2021/12/06 00:20:25;;;;;;;26.00;17.48;;;;;;;4.41;85.04;101136.59;4992024;28;20034;-63
2021/12/06 00:22:51;;;;;;;27.10;17.17;;;;;;;4.43;85.16;101141.88;4992298;28;20026;-63
2021/12/06 00:25:16;;;;;;;26.75;16.63;;;;;;;4.46;85.65;101149.84;4992023;28;20500;-63
2021/12/06 00:27:41;;;;;;;23.00;15.30;;;;;;;4.45;85.96;101148.03;4992125;28;20497;-63
2021/12/06 00:30:11;;;;;;;25.67;16.52;;;;;;;4.50;85.52;101157.88;4992031;28;20085;-63
2021/12/06 00:32:39;;;;;;;25.33;17.23;;;;;;;4.50;85.08;101157.00;4991875;28;20596;-63
2021/12/06 00:35:06;;;;;;;20.80;15.30;;;;;;;4.52;85.74;101158.81;4991899;28;20034;-64
2021/12/06 00:37:41;;;;;;;25.67;15.82;;;;;;;4.54;85.01;101166.75;4991960;28;20030;-64
2021/12/06 00:40:07;;;;;;;21.52;14.75;;;;;;;4.60;85.19;101161.75;5037375;28;20040;-63
2021/12/06 00:42:33;;;;;;;21.35;13.23;;;;;;;4.68;85.13;101162.06;5093600;28;20036;-65
2021/12/06 00:45:04;;;;;;;20.02;13.95;;;;;;;4.71;85.46;101159.53;5093321;28;20024;-65
2021/12/06 00:47:29;;;;;;;19.13;13.40;;;;;;;4.81;85.11;101164.31;5093182;28;20062;-64
2021/12/06 00:49:55;;;;;;;19.02;13.70;;;;;;;4.85;84.53;101168.84;5093539;28;20520;-63
2021/12/06 00:52:21;;;;;;;19.60;13.07;;;;;;;4.80;84.10;101169.47;5093362;28;20024;-63
2021/12/06 00:54:47;;;;;;;20.40;13.18;;;;;;;4.81;85.40;101176.53;5093241;28;20050;-64
2021/12/06 00:57:13;;;;;;;22.08;13.98;;;;;;;4.87;84.93;101197.69;5093230;28;20028;-63
2021/12/06 00:59:39;;;;;;;22.42;15.00;;;;;;;4.88;84.61;101189.00;5093339;28;20400;-63
2021/12/06 01:02:06;;;;;;;24.50;14.48;;;;;;;4.86;84.55;101198.53;5093165;28;20478;-63
2021/12/06 01:04:34;;;;;;;20.35;13.18;;;;;;;4.89;84.79;101204.78;5092880;28;20031;-63
2021/12/06 01:07:01;;;;;;;21.30;14.32;;;;;;;4.86;85.04;101214.25;5093072;28;20085;-63
2021/12/06 01:09:27;;;;;;;21.77;13.38;;;;;;;4.83;85.02;101211.50;5093338;28;20016;-63
2021/12/06 01:11:53;;;;;;;24.45;13.77;;;;;;;4.80;84.70;101213.97;5093147;28;20478;-63
2021/12/06 01:14:19;;;;;;;21.52;13.98;;;;;;;4.76;85.69;101219.13;5093074;28;20031;-62
2021/12/06 01:16:45;;;;;;;20.75;14.65;;;;;;;4.75;85.89;101224.28;5093111;28;20413;-63
2021/12/06 01:19:10;;;;;;;24.33;15.52;;;;;;;4.70;85.60;101226.72;5093094;28;20028;-63
2021/12/06 01:21:57;;;;;;;22.05;14.48;;;;;;;4.66;85.84;101221.28;5093910;28;20389;-63
2021/12/06 01:24:29;;;;;;;20.38;14.85;;;;;;;4.64;86.38;101215.13;5097215;28;20118;-63
2021/12/06 01:27:31;;;;;;;21.20;14.65;;;;;;;4.58;85.90;101205.25;5097265;28;20161;-63
2021/12/06 01:32:59;;;;;;;25.83;16.05;;;;;;;4.61;86.82;101220.22;5096839;28;20048;-62
2021/12/06 01:40:37;;;;;;;25.00;14.75;;;;;;;4.69;86.20;101227.53;5097117;28;20123;-64
2021/12/06 01:43:05;;;;;;;19.30;14.02;;;;;;;4.69;86.71;101234.50;5096786;28;20056;-63
2021/12/06 01:45:31;;;;;;;19.98;14.05;;;;;;;4.69;86.14;101234.50;5096697;28;20035;-63
2021/12/06 01:47:56;;;;;;;21.35;14.32;;;;;;;4.72;86.32;101234.66;5096832;28;20024;-63
2021/12/06 01:50:28;;;;;;;20.30;14.38;;;;;;;4.75;86.65;101235.66;5096615;28;20081;-63
2021/12/06 01:52:57;;;;;;;19.77;13.90;;;;;;;4.84;85.99;101242.06;5096438;28;20052;-64
2021/12/06 01:55:29;;;;;;;23.52;14.40;;;;;;;4.84;85.49;101237.75;5096489;28;20070;-63
2021/12/06 01:57:56;;;;;;;21.88;14.75;;;;;;;4.85;85.76;101242.16;5096598;28;20063;-63
2021/12/06 02:00:28;;;;;;;23.92;13.88;;;;;;;4.85;86.09;101242.16;5078353;28;20020;-63
2021/12/06 02:02:53;;;;;;;21.95;13.63;;;;;;;4.92;85.57;101249.41;5096179;28;20035;-63
2021/12/06 02:05:19;;;;;;;19.98;14.43;;;;;;;4.95;85.65;101246.03;5096206;28;20024;-63
2021/12/06 02:07:44;;;;;;;21.23;14.73;;;;;;;4.95;85.28;101256.50;5096465;28;20020;-64
2021/12/06 02:10:10;;;;;;;19.48;13.63;;;;;;;4.94;85.42;101252.09;5096558;28;20478;-63
2021/12/06 02:12:36;;;;;;;22.23;14.82;;;;;;;4.91;85.00;101252.88;5095976;28;20115;-63
2021/12/06 02:15:14;;;;;;;23.38;14.32;;;;;;;4.94;85.13;101244.25;5096264;28;20032;-63
2021/12/06 02:17:43;;;;;;;20.73;14.07;;;;;;;4.99;85.32;101248.81;5096155;28;20063;-63
2021/12/06 02:20:24;;;;;;;21.50;14.20;;;;;;;4.99;85.07;101258.41;5096016;28;20054;-63
2021/12/06 02:22:49;;;;;;;20.75;13.95;;;;;;;4.97;84.99;101258.38;5096071;28;20024;-63
2021/12/06 02:25:18;;;;;;;23.88;14.07;;;;;;;4.97;85.18;101258.38;5095969;28;20383;-63
2021/12/06 02:27:46;;;;;;;21.00;14.15;;;;;;;4.93;85.14;101263.41;5095970;28;20031;-63
2021/12/06 02:30:14;;;;;;;18.50;13.65;;;;;;;4.91;85.17;101258.09;5095945;28;20027;-63
2021/12/06 02:32:41;;;;;;;22.15;13.80;;;;;;;4.94;85.39;101262.56;5077027;28;20505;-63
2021/12/06 02:35:13;;;;;;;22.90;13.88;;;;;;;4.93;85.32;101268.66;5095783;28;20028;-63
2021/12/06 02:37:39;;;;;;;23.30;14.85;;;;;;;4.94;84.98;101271.31;5095753;28;20028;-63
2021/12/06 02:40:13;;;;;;;19.80;14.20;;;;;;;4.93;85.55;101268.66;5095832;28;20046;-63
2021/12/06 02:42:38;;;;;;;22.58;14.25;;;;;;;4.92;84.94;101272.97;5095716;28;20028;-63
2021/12/06 02:45:08;;;;;;;20.33;14.10;;;;;;;4.93;84.92;101281.75;5095556;28;20054;-63
2021/12/06 02:47:33;;;;;;;21.67;14.48;;;;;;;4.93;84.71;101281.75;5095520;28;20032;-63
2021/12/06 02:50:05;;;;;;;18.45;13.43;;;;;;;4.94;85.15;101283.53;5095564;28;20081;-63
2021/12/06 02:52:30;;;;;;;22.83;15.77;;;;;;;4.94;84.87;101284.41;5095617;28;20028;-63
2021/12/06 02:54:58;;;;;;;22.67;15.25;;;;;;;4.92;84.85;101286.06;5095473;28;20747;-63
2021/12/06 02:57:33;;;;;;;22.45;15.52;;;;;;;4.95;85.38;101291.44;5095383;28;20082;-63
2021/12/06 02:59:59;;;;;;;25.83;16.70;;;;;;;4.89;85.17;101285.06;5095103;28;20028;-63
2021/12/06 03:02:26;;;;;;;22.50;16.10;;;;;;;4.86;84.96;101295.41;5095314;28;20039;-63
2021/12/06 03:04:51;;;;;;;22.50;15.25;;;;;;;4.82;85.13;101304.84;5095406;28;20036;-63
2021/12/06 03:07:20;;;;;;;21.98;15.27;;;;;;;4.77;85.03;101301.16;5095250;28;20488;-63
2021/12/06 03:09:46;;;;;;;25.73;16.42;;;;;;;4.72;86.07;101294.84;5095219;28;20024;-63
2021/12/06 03:12:15;;;;;;;23.80;15.63;;;;;;;4.66;86.03;101290.22;5095213;28;20089;-63
2021/12/06 03:14:49;;;;;;;29.23;16.75;;;;;;;4.69;85.89;101297.34;5094862;28;20470;-63
2021/12/06 03:17:17;;;;;;;23.38;15.65;;;;;;;4.72;85.60;101297.47;5094981;28;20533;-63
2021/12/06 03:19:43;;;;;;;26.83;17.63;;;;;;;4.70;85.65;101299.13;5095109;28;20039;-63
2021/12/06 03:22:11;;;;;;;25.88;16.33;;;;;;;4.74;86.50;101303.66;5094866;28;20059;-63
2021/12/06 03:24:37;;;;;;;27.40;17.35;;;;;;;4.74;85.81;101303.66;5094931;28;20378;-63
2021/12/06 03:27:03;;;;;;;26.67;16.88;;;;;;;4.77;86.05;101303.78;5094752;28;20028;-63
2021/12/06 03:29:29;;;;;;;26.27;16.77;;;;;;;4.77;85.44;101307.28;5094541;28;20039;-63
2021/12/06 03:31:55;;;;;;;27.85;17.17;;;;;;;4.78;85.72;101303.84;5094304;28;20040;-63
2021/12/06 03:34:26;;;;;;;25.20;16.13;;;;;;;4.81;86.00;101304.81;5074907;28;20046;-63
2021/12/06 03:36:53;;;;;;;25.88;16.92;;;;;;;4.80;85.70;101306.53;5093353;28;20028;-63
2021/12/06 03:39:24;;;;;;;25.23;16.77;;;;;;;4.79;85.17;101309.97;5093694;28;20059;-63
2021/12/06 03:41:53;;;;;;;25.57;16.00;;;;;;;4.76;85.58;101309.84;5093547;28;20047;-63
2021/12/06 03:44:20;;;;;;;25.20;16.60;;;;;;;4.76;85.45;101308.13;5092552;28;20788;-63
2021/12/06 03:46:47;;;;;;;27.80;17.17;;;;;;;4.76;85.70;101310.75;5093516;28;20496;-63
2021/12/06 03:49:16;;;;;;;24.33;16.35;;;;;;;4.77;85.79;101309.91;5093472;28;20032;-64
2021/12/06 03:51:43;;;;;;;25.10;16.60;;;;;;;4.77;85.46;101316.88;5093223;28;20028;-62
2021/12/06 03:54:12;;;;;;;27.55;16.30;;;;;;;4.78;86.00;101314.31;5093374;28;20024;-63
2021/12/06 03:56:39;;;;;;;25.52;16.55;;;;;;;4.87;85.41;101323.38;5093324;28;20032;-63
2021/12/06 03:59:05;;;;;;;24.95;16.00;;;;;;;4.88;85.88;101315.59;5093297;28;20478;-63
2021/12/06 04:01:31;;;;;;;23.10;16.30;;;;;;;4.89;85.43;101320.00;5093387;28;20028;-62
2021/12/06 04:03:58;;;;;;;25.38;16.02;;;;;;;4.94;85.43;101317.56;5093220;28;20032;-63
2021/12/06 04:06:23;;;;;;;24.02;15.55;;;;;;;4.97;85.29;101304.63;5093153;28;20024;-63
2021/12/06 04:08:49;;;;;;;22.67;15.18;;;;;;;5.00;84.98;101318.69;5093167;28;20020;-63
2021/12/06 04:11:14;;;;;;;23.05;15.02;;;;;;;5.00;84.77;101316.06;5093093;28;20092;-63
2021/12/06 04:13:40;;;;;;;23.05;15.80;;;;;;;4.96;84.27;101308.03;5093131;28;20093;-62
2021/12/06 04:16:06;;;;;;;23.42;15.75;;;;;;;4.98;84.23;101325.63;5093044;28;20364;-63
2021/12/06 04:18:32;;;;;;;22.00;14.75;;;;;;;4.94;84.73;101325.44;5092992;28;20021;-63
2021/12/06 04:20:58;;;;;;;22.05;14.77;;;;;;;4.88;83.88;101325.16;5092968;28;20070;-63
2021/12/06 04:23:24;;;;;;;23.08;14.35;;;;;;;4.88;84.86;101330.38;5093122;28;20024;-63
2021/12/06 04:25:50;;;;;;;23.02;14.98;;;;;;;4.91;84.65;101331.41;5092966;28;20035;-63
2021/12/06 04:28:18;;;;;;;24.42;14.98;;;;;;;4.93;84.67;101328.88;5092777;28;20106;-63
2021/12/06 04:30:44;;;;;;;25.50;14.93;;;;;;;4.94;84.84;101325.44;5093070;28;20023;-63
2021/12/06 04:33:10;;;;;;;21.27;14.35;;;;;;;4.94;84.18;101326.31;5054499;28;1102507;-62
2021/12/06 04:35:38;;;;;;;19.88;13.23;;;;;;;4.85;83.24;101323.31;5093465;28;20390;-62
2021/12/06 04:38:04;;;;;;;21.98;14.35;;;;;;;4.83;83.50;101324.97;5075309;28;20491;-63
2021/12/06 04:40:29;;;;;;;22.40;15.43;;;;;;;4.80;83.63;101332.72;5093585;28;20374;-63
2021/12/06 04:42:58;;;;;;;26.20;15.43;;;;;;;4.75;83.37;101323.75;5093408;28;20024;-63
2021/12/06 04:45:24;;;;;;;22.80;14.65;;;;;;;4.66;83.84;101320.75;5093422;28;20086;-63
2021/12/06 04:47:50;;;;;;;20.55;14.38;;;;;;;4.60;83.93;101330.97;5075595;28;20016;-63
2021/12/06 04:50:19;;;;;;;22.73;14.18;;;;;;;4.50;83.84;101333.19;5093395;28;20099;-63
2021/12/06 04:52:45;;;;;;;24.92;14.10;;;;;;;4.42;83.74;101324.13;5093215;28;20489;-63
2021/12/06 04:55:19;;;;;;;23.15;14.95;;;;;;;4.42;84.07;101334.59;5093281;28;20050;-63
2021/12/06 04:57:46;;;;;;;22.85;14.50;;;;;;;4.35;83.54;101335.13;5075347;28;20035;-63
2021/12/06 05:00:20;;;;;;;22.45;14.30;;;;;;;4.31;83.16;101345.41;5093166;28;20073;-62
2021/12/06 05:02:47;;;;;;;22.65;13.82;;;;;;;4.26;83.85;101337.34;5093307;28;20036;-63
2021/12/06 05:05:22;;;;;;;20.63;14.25;;;;;;;4.22;83.27;101348.50;5093289;28;20028;-62
2021/12/06 05:07:53;;;;;;;23.27;13.63;;;;;;;4.17;83.05;101350.94;5093218;28;20106;-63
2021/12/06 05:10:19;;;;;;;19.88;13.00;;;;;;;4.19;84.18;101346.66;5093321;28;20429;-64
2021/12/06 05:12:46;;;;;;;19.70;13.75;;;;;;;4.24;83.83;101345.16;5093160;28;20016;-63
2021/12/06 05:15:12;;;;;;;20.77;13.20;;;;;;;4.18;82.50;101351.81;5093108;28;20034;-62
2021/12/06 05:17:38;;;;;;;19.30;12.98;;;;;;;4.08;82.43;101355.75;5093048;28;20020;-63
2021/12/06 05:20:05;;;;;;;21.20;13.88;;;;;;;4.02;82.88;101352.84;5092723;28;20471;-63
2021/12/06 05:22:31;;;;;;;21.98;14.55;;;;;;;4.04;82.73;101363.38;5092391;28;20034;-63
2021/12/06 05:24:57;;;;;;;22.13;15.00;;;;;;;4.00;83.21;101360.63;5092747;28;20489;-62
2021/12/06 05:27:28;;;;;;;20.23;13.27;;;;;;;3.90;82.44;101362.78;5093062;28;20032;-63
2021/12/06 05:29:57;;;;;;;17.95;13.18;;;;;;;3.83;82.39;101369.41;5092980;28;20032;-63
2021/12/06 05:32:30;;;;;;;21.10;13.13;;;;;;;3.78;82.54;101370.03;5092771;28;20390;-62
2021/12/06 05:35:02;;;;;;;19.98;13.43;;;;;;;3.66;82.36;101370.34;5093123;28;20565;-63
2021/12/06 05:37:28;;;;;;;20.40;13.27;;;;;;;3.54;82.04;101370.66;5092672;28;20054;-63
2021/12/06 05:39:54;;;;;;;20.30;12.50;;;;;;;3.57;83.45;101365.59;5092864;28;20024;-64
2021/12/06 05:42:19;;;;;;;20.60;12.57;;;;;;;3.63;83.50;101367.59;5092904;28;20032;-63
2021/12/06 05:44:45;;;;;;;22.45;12.45;;;;;;;3.69;83.00;101366.16;5092530;28;20040;-63
2021/12/06 05:47:11;;;;;;;25.88;12.20;;;;;;;3.69;82.34;101360.94;5092802;28;20046;-63
2021/12/06 05:49:37;;;;;;;27.00;11.73;;;;;;;3.73;81.97;101360.25;5092801;28;20020;-63
2021/12/06 05:52:03;;;;;;;28.13;11.27;;;;;;;3.73;81.36;101360.25;5092757;28;20024;-63
2021/12/06 05:54:28;;;;;;;31.42;11.98;;;;;;;3.71;81.17;101356.66;5092761;28;20024;-63
2021/12/06 05:56:55;;;;;;;71.90;10.60;;;;;;;3.55;80.96;101367.22;5092933;28;20028;-64
2021/12/06 05:59:21;;;;;;;67.32;11.48;;;;;;;3.40;81.92;101356.94;5092646;28;20024;-63
2021/12/06 06:01:49;;;;;;;50.00;11.43;;;;;;;3.38;82.34;101368.13;5092681;28;20028;-63
2021/12/06 06:04:14;;;;;;;46.80;11.02;;;;;;;3.39;81.95;101372.56;5092961;28;20093;-63
2021/12/06 06:06:40;;;;;;;36.88;10.18;;;;;;;3.32;82.25;101379.19;5092440;28;20546;-63
2021/12/06 06:09:06;;;;;;;35.95;9.10;;;;;;;3.21;81.10;101378.69;5077365;28;20020;-63
2021/12/06 06:11:34;;;;;;;44.53;9.10;;;;;;;3.17;80.89;101386.25;5096296;28;20024;-63
2021/12/06 06:14:01;;;;;;;47.05;9.00;;;;;;;3.01;80.96;101390.75;5078133;28;20039;-63
2021/12/06 06:16:31;;;;;;;46.40;8.63;;;;;;;2.84;80.90;101391.63;5096192;28;20055;-64
2021/12/06 06:18:57;;;;;;;52.42;9.18;;;;;;;2.78;82.07;101400.84;5096167;28;20097;-64
2021/12/06 06:21:22;;;;;;;52.28;9.27;;;;;;;2.72;82.58;101396.22;5096151;28;20062;-63
2021/12/06 06:23:47;;;;;;;61.13;10.18;;;;;;;2.69;82.78;101396.03;5095924;28;20088;-63
2021/12/06 06:26:13;;;;;;;38.83;9.63;;;;;;;2.66;82.65;101401.13;5095905;28;20101;-63
2021/12/06 06:28:38;;;;;;;69.68;10.10;;;;;;;2.69;83.00;101403.88;5095959;28;20024;-63
2021/12/06 06:31:04;;;;;;;57.47;10.77;;;;;;;2.75;83.30;101401.59;5096030;28;20020;-63
2021/12/06 06:33:30;;;;;;;53.03;10.70;;;;;;;2.80;83.54;101407.94;5095759;28;20040;-63
2021/12/06 06:35:55;;;;;;;48.33;10.90;;;;;;;2.84;83.83;101415.09;5095774;28;20027;-63
2021/12/06 06:38:22;;;;;;;65.30;9.90;;;;;;;2.76;83.04;101412.09;5095589;28;20048;-63
2021/12/06 06:40:49;;;;;;;47.47;10.40;;;;;;;2.78;83.80;101411.28;5095883;28;20028;-63
2021/12/06 06:43:14;;;;;;;52.65;11.65;;;;;;;2.81;83.76;101407.13;5095634;28;20032;-62
2021/12/06 06:45:40;;;;;;;43.28;10.55;;;;;;;2.83;83.83;101415.03;5095599;28;20024;-63
2021/12/06 06:48:05;;;;;;;60.33;11.52;;;;;;;2.88;84.45;101414.44;5095670;28;20032;-63
2021/12/06 06:50:31;;;;;;;34.25;11.15;;;;;;;2.91;84.01;101412.00;5095615;28;20102;-63
2021/12/06 06:52:57;;;;;;;54.15;14.23;;;;;;;2.86;84.39;101405.63;5095421;28;20028;-63
2021/12/06 06:55:23;;;;;;;64.75;14.45;;;;;;;2.85;85.26;101416.88;5095360;28;20600;-63
2021/12/06 06:57:52;;;;;;;51.95;15.23;;;;;;;2.79;85.81;101408.75;5095458;28;20490;-63
2021/12/06 07:00:24;;;;;;;62.42;15.35;;;;;;;2.73;85.34;101411.03;5095378;28;20031;-63
2021/12/06 07:02:50;;;;;;;;;;;;;;;2.84;85.11;101417.72;5095772;28;20494;-63
2021/12/06 07:05:18;;;;;;;44.42;14.13;;;;;;;2.83;85.75;101412.44;5095238;28;19918;-63
2021/12/06 07:07:44;;;;;;;29.58;14.57;;;;;;;2.84;85.85;101411.59;5095026;28;20035;-63
2021/12/06 07:10:10;;;;;;;37.38;14.25;;;;;;;2.88;86.16;101414.44;5095166;28;20021;-63
2021/12/06 07:12:43;;;;;;;33.55;13.27;;;;;;;2.95;85.70;101421.75;5095203;28;20024;-63
2021/12/06 07:15:11;;;;;;;33.20;15.15;;;;;;;2.96;85.93;101426.16;5095138;28;20074;-63
2021/12/06 07:17:39;;;;;;;52.22;15.15;;;;;;;2.85;85.96;101418.59;5095020;28;20035;-63
2021/12/06 07:20:05;;;;;;;69.18;14.93;;;;;;;2.86;86.67;101434.34;5093841;28;20027;-63
2021/12/06 07:22:31;;;;;;;62.72;15.80;;;;;;;2.83;87.39;101433.31;5094652;28;20122;-63
2021/12/06 07:24:56;;;;;;;95.80;17.08;;;;;;;2.81;87.62;101438.44;5094779;28;20038;-63
2021/12/06 07:27:22;;;;;;;55.35;16.27;;;;;;;2.81;88.05;101437.53;5094814;28;20032;-63
2021/12/06 07:29:47;;;;;;;53.97;16.95;;;;;;;2.90;88.04;101438.91;5094758;28;20103;-63
2021/12/06 07:32:12;;;;;;;49.53;16.15;;;;;;;3.02;87.95;101443.84;5094428;28;20109;-62
2021/12/06 07:34:38;;;;;;;51.33;16.48;;;;;;;3.07;87.23;101444.09;5094702;28;20067;-63
2021/12/06 07:37:04;;;;;;;51.05;15.52;;;;;;;3.09;86.88;101450.28;5094155;28;20161;-63
2021/12/06 07:39:30;;;;;;;58.05;16.13;;;;;;;3.13;87.63;101447.03;5094112;28;20012;-63
2021/12/06 07:41:59;;;;;;;43.83;15.73;;;;;;;3.22;87.28;101456.19;5094300;28;20094;-63
2021/12/06 07:44:25;;;;;;;30.48;13.50;;;;;;;3.33;87.85;101458.44;5093958;28;20028;-63
2021/12/06 07:46:52;;;;;;;35.33;15.20;;;;;;;3.36;87.10;101445.53;5093905;28;20039;-63
2021/12/06 07:49:19;;;;;;;28.35;15.57;;;;;;;3.47;86.49;101455.72;5075366;28;20119;-63
2021/12/06 07:51:45;;;;;;;38.75;15.35;;;;;;;3.52;86.66;101440.25;5093578;28;20390;-63
2021/12/06 07:54:10;;;;;;;32.10;14.85;;;;;;;3.65;86.37;101444.34;5093529;28;20567;-63
2021/12/06 07:56:36;;;;;;;26.27;15.02;;;;;;;3.68;86.53;101439.25;5093620;28;20028;-62
2021/12/06 07:59:11;;;;;;;24.60;14.48;;;;;;;3.72;86.07;101428.13;5093526;28;20032;-63
2021/12/06 08:01:37;;;;;;;42.65;15.30;;;;;;;3.78;85.78;101435.38;5093349;28;20020;-63
2021/12/06 08:04:03;;;;;;;34.03;15.35;;;;;;;3.79;85.68;101431.94;5093615;28;20031;-63
2021/12/06 08:06:29;;;;;;;38.33;14.60;;;;;;;3.76;86.10;101424.84;5093127;28;20458;-63
2021/12/06 08:08:54;;;;;;;26.17;14.57;;;;;;;3.81;85.87;101425.94;5093799;28;20042;-63
2021/12/06 08:11:21;;;;;;;33.35;15.02;;;;;;;3.82;85.56;101419.91;5093524;28;20477;-63
2021/12/06 08:13:53;;;;;;;44.47;16.30;;;;;;;3.82;86.08;101422.53;5075433;28;20024;-63
2021/12/06 08:16:23;;;;;;;34.63;15.02;;;;;;;3.84;85.57;101426.09;5093327;28;20077;-63
2021/12/06 08:18:48;;;;;;;34.92;15.73;;;;;;;3.84;85.85;101425.22;5093218;28;20028;-63
2021/12/06 08:21:16;;;;;;;34.60;15.75;;;;;;;3.87;85.28;101414.91;5092531;28;20063;-63
2021/12/06 08:23:42;;;;;;;39.30;15.93;;;;;;;3.86;84.92;101421.84;5093265;28;20031;-62
2021/12/06 08:26:10;;;;;;;77.55;16.88;;;;;;;3.81;85.89;101422.44;5092900;28;20021;-62
2021/12/06 08:28:36;;;;;;;46.25;16.75;;;;;;;3.74;85.60;101423.88;5093194;28;20446;-63
2021/12/06 08:31:04;;;;;;;47.80;18.15;;;;;;;3.67;85.73;101417.44;5093064;28;20024;-63
2021/12/06 08:33:30;;;;;;;35.72;16.83;;;;;;;3.65;85.95;101423.44;5092639;28;20051;-63
2021/12/06 08:35:57;;;;;;;48.72;17.88;;;;;;;3.62;86.08;101425.91;5093166;28;20028;-63
2021/12/06 08:38:26;;;;;;;41.22;17.65;;;;;;;3.66;86.42;101433.97;5092880;28;20107;-63
2021/12/06 08:40:54;;;;;;;43.60;18.63;;;;;;;3.61;86.79;101435.47;5093096;28;20028;-63
2021/12/06 08:43:19;;;;;;;72.75;19.83;;;;;;;3.56;86.94;101450.03;5092756;28;20058;-63
2021/12/06 08:45:59;;;;;;;48.83;20.48;;;;;;;3.44;87.57;101452.94;5093032;28;20412;-63
2021/12/06 08:48:28;;;;;;;54.33;19.20;;;;;;;3.34;88.12;101455.00;5092617;28;20032;-64
2021/12/06 08:50:57;;;;;;;58.85;20.50;;;;;;;3.25;87.89;101468.50;5092712;28;20036;-62
2021/12/06 08:53:23;;;;;;;83.28;22.30;;;;;;;3.19;88.92;101465.59;5092626;28;20450;-62
2021/12/06 08:55:49;;;;;;;75.07;22.92;;;;;;;3.18;89.21;101472.53;5092617;28;20085;-63
2021/12/06 08:58:16;;;;;;;69.28;22.70;;;;;;;3.12;89.86;101472.22;5092657;28;20024;-63
2021/12/06 09:00:43;;;;;;;99.78;22.65;;;;;;;3.09;89.29;101472.06;5092654;28;20055;-64
2021/12/06 09:03:08;;;;;;;71.03;21.73;;;;;;;3.07;90.29;101467.59;5092934;28;20383;-63
2021/12/06 09:05:41;;;;;;;122.72;22.88;;;;;;;3.10;89.97;101468.63;5092259;28;20500;-62
2021/12/06 09:08:07;;;;;;;103.35;22.98;;;;;;;3.15;89.87;101474.09;5092743;28;20089;-63
2021/12/06 09:10:33;;;;;;;123.47;26.17;;;;;;;3.11;89.74;101466.91;5092457;28;20035;-63
2021/12/06 09:12:58;;;;;;;71.65;22.40;;;;;;;3.16;90.19;101475.88;5092617;28;20390;-63
2021/12/06 09:15:25;;;;;;;70.47;23.08;;;;;;;3.17;90.69;101469.81;5092360;28;20023;-63
2021/12/06 09:17:53;;;;;;;59.90;23.63;;;;;;;3.19;90.72;101476.03;5092504;28;20462;-62
2021/12/06 09:20:22;;;;;;;62.47;25.02;;;;;;;3.18;90.27;101475.16;5092468;28;20020;-63
2021/12/06 09:22:48;;;;;;;68.25;23.77;;;;;;;3.15;90.35;101469.75;5092306;28;20462;-63
2021/12/06 09:25:16;;;;;;;58.28;24.10;;;;;;;3.18;91.34;101471.66;5092523;28;20039;-62
2021/12/06 09:27:42;;;;;;;65.22;25.50;;;;;;;3.16;90.34;101474.16;5092352;28;20027;-63
2021/12/06 09:30:10;;;;;;;48.30;23.60;;;;;;;3.11;91.07;101474.75;5092464;28;20478;-63
2021/12/06 09:32:36;;;;;;;57.80;24.70;;;;;;;3.14;91.12;101475.81;5092083;28;20070;-62
2021/12/06 09:35:03;;;;;;;53.75;22.70;;;;;;;3.17;91.31;101470.75;5092447;28;20036;-63
2021/12/06 09:37:29;;;;;;;58.58;23.38;;;;;;;3.17;90.47;101478.59;5092384;28;20024;-62
2021/12/06 09:39:56;;;;;;;97.40;24.30;;;;;;;3.17;90.79;101477.66;5092547;28;20020;-62
2021/12/06 09:42:22;;;;;;;63.67;23.75;;;;;;;3.08;90.98;101470.25;5092683;28;20085;-62
2021/12/06 09:44:48;;;;;;;63.33;23.90;;;;;;;3.10;91.17;101478.19;5096048;28;20024;-63
2021/12/06 09:47:13;;;;;;;67.93;23.83;;;;;;;3.10;91.79;101472.97;5096173;28;20026;-63
2021/12/06 09:49:39;;;;;;;57.85;24.77;;;;;;;3.12;91.74;101476.53;5095751;28;20493;-62
2021/12/06 09:52:09;;;;;;;61.92;25.25;;;;;;;3.13;91.47;101476.63;5096023;28;20031;-62
2021/12/06 09:54:38;;;;;;;57.60;24.20;;;;;;;3.14;91.60;101477.53;5095947;28;20036;-62
2021/12/06 09:57:05;;;;;;;54.28;23.83;;;;;;;3.09;92.05;101463.34;5096129;28;20355;-63
2021/12/06 09:59:33;;;;;;;74.85;27.90;;;;;;;2.99;92.90;101475.00;5095777;28;20024;-63
2021/12/06 10:02:07;;;;;;;58.70;23.13;;;;;;;2.97;93.29;101469.72;5095822;28;20028;-62
2021/12/06 10:04:35;;;;;;;52.05;22.77;;;;;;;3.04;92.74;101481.41;5095763;28;20036;-62
2021/12/06 10:07:02;;;;;;;51.17;23.13;;;;;;;3.05;93.26;101474.44;5095919;28;20086;-63
2021/12/06 10:09:28;;;;;;;55.25;23.73;;;;;;;3.04;93.20;101472.63;5095711;28;20035;-62
2021/12/06 10:11:56;;;;;;;54.92;24.77;;;;;;;3.05;93.37;101469.22;5095703;28;20503;-63
2021/12/06 10:14:21;;;;;;;53.00;22.60;;;;;;;3.03;93.66;101460.41;5095784;28;20031;-62
2021/12/06 10:16:47;;;;;;;44.60;21.33;;;;;;;3.05;92.21;101458.78;5095595;28;20036;-63
2021/12/06 10:19:14;;;;;;;35.58;17.90;;;;;;;3.00;92.46;101455.94;5095709;28;20438;-62
2021/12/06 10:21:41;;;;;;;37.38;17.02;;;;;;;2.99;92.50;101452.41;5095350;28;20423;-63
2021/12/06 10:24:13;;;;;;;40.97;19.05;;;;;;;3.01;92.48;101447.28;5095712;28;20394;-63
2021/12/06 10:26:38;;;;;;;;;;;;;;;3.04;92.41;101443.91;5095838;28;20377;-62
2021/12/06 10:29:12;;;;;;;37.63;19.00;;;;;;;2.95;92.06;101441.72;5095560;28;19919;-62
2021/12/06 10:31:41;;;;;;;51.20;21.23;;;;;;;2.91;92.08;101427.66;5095204;28;20028;-62
2021/12/06 10:34:13;;;;;;;43.83;19.60;;;;;;;2.86;92.66;101428.22;5095060;28;20076;-63
2021/12/06 10:36:38;;;;;;;48.78;21.30;;;;;;;2.83;92.80;101426.38;5095130;28;20110;-63
2021/12/06 10:39:08;;;;;;;49.30;20.52;;;;;;;2.88;92.98;101431.81;5095148;28;20059;-63
2021/12/06 10:41:37;;;;;;;51.88;23.02;;;;;;;2.88;93.19;101427.50;5095279;28;20028;-63
2021/12/06 10:44:16;;;;;;;54.65;21.75;;;;;;;2.91;93.24;101432.88;5077014;28;20035;-63
2021/12/06 10:46:49;;;;;;;61.65;23.90;;;;;;;2.91;93.04;101432.88;5095211;28;20479;-62
2021/12/06 10:49:21;;;;;;;56.50;21.88;;;;;;;2.89;93.15;101415.34;5077254;28;20462;-61
2021/12/06 10:51:47;;;;;;;48.83;19.95;;;;;;;2.92;92.74;101416.41;5076981;28;20024;-64
2021/12/06 10:54:33;;;;;;;49.67;19.25;;;;;;;2.86;92.47;101400.41;5094660;28;20450;-64
2021/12/06 10:57:09;;;;;;;49.60;19.50;;;;;;;2.82;92.58;101388.03;5095082;28;20107;-64
2021/12/06 10:59:39;;;;;;;50.30;18.38;;;;;;;2.89;92.42;101390.13;5095051;28;20059;-64
2021/12/06 11:02:10;;;;;;;54.72;21.00;;;;;;;2.91;92.54;101384.97;5095056;28;20047;-64
2021/12/06 11:04:36;;;;;;;51.85;19.58;;;;;;;2.94;92.13;101375.59;5094902;28;20028;-64
2021/12/06 11:07:07;;;;;;;45.08;17.73;;;;;;;2.96;92.17;101371.34;5094851;28;20020;-64
2021/12/06 11:09:38;;;;;;;46.28;19.13;;;;;;;2.95;92.19;101372.16;5094655;28;20451;-64
2021/12/06 11:12:05;;;;;;;48.47;19.77;;;;;;;2.78;91.85;101359.09;5094612;28;20031;-64
2021/12/06 11:14:40;;;;;;;45.80;19.50;;;;;;;2.75;92.83;101367.66;5094646;28;20024;-64
2021/12/06 11:17:09;;;;;;;40.70;18.45;;;;;;;2.77;93.17;101371.25;5094677;28;20125;-64
2021/12/06 11:19:35;;;;;;;41.55;18.60;;;;;;;2.80;92.90;101370.50;5094550;28;20445;-64
2021/12/06 11:22:08;;;;;;;33.17;15.63;;;;;;;2.83;92.23;101368.97;5094162;28;20020;-64
2021/12/06 11:24:41;;;;;;;34.03;17.60;;;;;;;2.79;91.62;101372.22;5094319;28;20050;-63
2021/12/06 11:27:20;;;;;;;32.10;16.55;;;;;;;2.76;91.19;101356.41;5094395;28;20363;-63
2021/12/06 11:29:57;;;;;;;31.70;15.75;;;;;;;2.76;90.49;101351.19;5094353;28;20077;-63